Home > Products > Valid Products > TAF

000
FTUS43 KSGF 301700
TAFJLN
TAF
KJLN 301720Z 3018/3118 18010KT P6SM SKC
     FM310800 19004KT P6SM SKC
     FM311400 21005KT P6SM SCT250=



000
FTUS43 KSGF 301700
TAFSGF
TAF
KSGF 301720Z 3018/3118 19008KT P6SM SKC
     FM310000 17005KT P6SM SKC
     FM311400 24008KT P6SM SCT250=



000
FTUS43 KSGF 301300 AAA
TAFSGF
TAF AMD
KSGF 301310Z 3013/3112 VRB03KT P6SM SKC
     FM301500 16008KT P6SM SKC
     FM301800 19009KT P6SM SKC
     FM310000 18007KT P6SM SKC=



000
FTUS43 KSGF 301300 AAA
TAFSGF
TAF AMD
KSGF 301310Z 3013/3112 VRB03KT P6SM SKC
     FM301500 16008KT P6SM SKC
     FM301800 19009KT P6SM SKC
     FM310000 18007KT P6SM SKC=



000
FTUS43 KSGF 301100
TAFJLN
TAF
KJLN 301120Z 3012/3112 VRB03KT P6SM SKC
     FM301500 17008KT P6SM SKC
     FM301800 20010KT P6SM SKC
     FM310000 19007KT P6SM SKC=



000
FTUS43 KSGF 301100
TAFJLN
TAF
KJLN 301120Z 3012/3112 VRB03KT P6SM SKC
     FM301500 17008KT P6SM SKC
     FM301800 20010KT P6SM SKC
     FM310000 19007KT P6SM SKC=



000
FTUS43 KSGF 301100
TAFSGF
TAF
KSGF 301120Z 3012/3112 VRB03KT 4SM BR SKC
      TEMPO 3012/3014 1SM BR
     FM301500 16008KT P6SM SKC
     FM301800 19009KT P6SM SKC
     FM310000 18007KT P6SM SKC=



000
FTUS43 KSGF 301100
TAFSGF
TAF
KSGF 301120Z 3012/3112 VRB03KT 4SM BR SKC
      TEMPO 3012/3014 1SM BR
     FM301500 16008KT P6SM SKC
     FM301800 19009KT P6SM SKC
     FM310000 18007KT P6SM SKC=



000
FTUS43 KSGF 300800 AAA
TAFSGF
TAF AMD
KSGF 300843Z 3009/3106 VRB04KT 6SM BR SKC
      TEMPO 3009/3013 2SM BR
     FM301500 16008KT P6SM SKC
     FM301800 18008KT P6SM SKC=



000
FTUS43 KSGF 300800 AAA
TAFSGF
TAF AMD
KSGF 300843Z 3009/3106 VRB04KT 6SM BR SKC
      TEMPO 3009/3013 2SM BR
     FM301500 16008KT P6SM SKC
     FM301800 18008KT P6SM SKC=



000
FTUS43 KSGF 300500
TAFSGF
TAF
KSGF 300520Z 3006/3106 VRB04KT P6SM SKC
     FM301500 16008KT P6SM SKC
     FM301800 18008KT P6SM SKC=



000
FTUS43 KSGF 300500
TAFJLN
TAF
KJLN 300520Z 3006/3106 VRB04KT P6SM SKC
     FM301500 17008KT P6SM SKC
     FM301800 19010KT P6SM SKC=



000
FTUS43 KSGF 300500
TAFSGF
TAF
KSGF 300520Z 3006/3106 VRB04KT P6SM SKC
     FM301500 16008KT P6SM SKC
     FM301800 18008KT P6SM SKC=



000
FTUS43 KSGF 300500
TAFJLN
TAF
KJLN 300520Z 3006/3106 VRB04KT P6SM SKC
     FM301500 17008KT P6SM SKC
     FM301800 19010KT P6SM SKC=



000
FTUS43 KSGF 292300
TAFJLN
TAF
KJLN 292320Z 3000/3024 VRB04KT P6SM SCT150
     FM300100 VRB04KT P6SM SKC
     FM301400 17008KT P6SM SCT250=



000
FTUS43 KSGF 292300
TAFSGF
TAF
KSGF 292320Z 3000/3024 29007KT P6SM BKN150
     FM300100 VRB04KT P6SM SKC
     FM301400 16008KT P6SM SCT150=



000
FTUS43 KSGF 292300
TAFSGF
TAF
KSGF 292320Z 3000/3024 29007KT P6SM BKN150
     FM300100 VRB04KT P6SM SKC
     FM301400 16008KT P6SM SCT150=



000
FTUS43 KSGF 292300
TAFJLN
TAF
KJLN 292320Z 3000/3024 VRB04KT P6SM SCT150
     FM300100 VRB04KT P6SM SKC
     FM301400 17008KT P6SM SCT250=



000
FTUS43 KSGF 291700
TAFSGF
TAF
KSGF 291720Z 2918/3018 17012G20KT P6SM BKN120
     FM291900 26009KT P6SM BKN120
     FM300000 VRB04KT P6SM SCT250
     FM301400 16008KT P6SM SCT150=



000
FTUS43 KSGF 291700
TAFJLN
TAF
KJLN 291720Z 2918/3018 27010KT P6SM BKN110
     FM292300 VRB04KT P6SM SCT250
     FM301400 17008KT P6SM SCT250=



000
FTUS43 KSGF 291700
TAFJLN
TAF
KJLN 291720Z 2918/3018 27010KT P6SM BKN110
     FM292300 VRB04KT P6SM SCT250
     FM301400 17008KT P6SM SCT250=



000
FTUS43 KSGF 291700
TAFSGF
TAF
KSGF 291720Z 2918/3018 17012G20KT P6SM BKN120
     FM291900 26009KT P6SM BKN120
     FM300000 VRB04KT P6SM SCT250
     FM301400 16008KT P6SM SCT150=



000
FTUS43 KSGF 291500 AAA
TAFJLN
TAF AMD
KJLN 291552Z 2916/3012 26010KT P6SM BKN110
     FM291900 27010KT P6SM BKN140
     FM292300 31005KT P6SM SCT140=



000
FTUS43 KSGF 291500 AAA
TAFJLN
TAF AMD
KJLN 291552Z 2916/3012 26010KT P6SM BKN110
     FM291900 27010KT P6SM BKN140
     FM292300 31005KT P6SM SCT140=



000
FTUS43 KSGF 291100
TAFSGF
TAF
KSGF 291120Z 2912/3012 15017G28KT P6SM SCT120 WS020/20040KT
     FM291600 17014G23KT P6SM SCT080 BKN120
     FM292000 26010KT P6SM SCT080 BKN120
     FM300000 30006KT P6SM SCT140=



000
FTUS43 KSGF 291100
TAFJLN
TAF
KJLN 291120Z 2912/3012 15010KT P6SM SCT120 WS020/21045KT
     FM291600 22014G23KT P6SM BKN120
     FM291900 27010KT P6SM BKN140
     FM292300 31005KT P6SM SCT140=



000
FTUS43 KSGF 291100
TAFJLN
TAF
KJLN 291120Z 2912/3012 15010KT P6SM SCT120 WS020/21045KT
     FM291600 22014G23KT P6SM BKN120
     FM291900 27010KT P6SM BKN140
     FM292300 31005KT P6SM SCT140=



000
FTUS43 KSGF 291100
TAFSGF
TAF
KSGF 291120Z 2912/3012 15017G28KT P6SM SCT120 WS020/20040KT
     FM291600 17014G23KT P6SM SCT080 BKN120
     FM292000 26010KT P6SM SCT080 BKN120
     FM300000 30006KT P6SM SCT140=



000
FTUS43 KSGF 290500
TAFSGF
TAF
KSGF 290520Z 2906/3006 15014G22KT P6SM SKC
     FM291600 17015KT P6SM BKN150
     FM291900 24010KT P6SM BKN150
     FM300000 30006KT P6SM SCT150=



000
FTUS43 KSGF 290500
TAFJLN
TAF
KJLN 290520Z 2906/3006 14008KT P6SM SKC WS020/21040KT
     FM291600 22015KT P6SM BKN150
     FM291900 28010KT P6SM BKN150
     FM292300 31005KT P6SM SCT150=



000
FTUS43 KSGF 290500
TAFJLN
TAF
KJLN 290520Z 2906/3006 14008KT P6SM SKC WS020/21040KT
     FM291600 22015KT P6SM BKN150
     FM291900 28010KT P6SM BKN150
     FM292300 31005KT P6SM SCT150=



000
FTUS43 KSGF 290500
TAFSGF
TAF
KSGF 290520Z 2906/3006 15014G22KT P6SM SKC
     FM291600 17015KT P6SM BKN150
     FM291900 24010KT P6SM BKN150
     FM300000 30006KT P6SM SCT150=



000
FTUS43 KSGF 282300
TAFJLN
TAF
KJLN 282320Z 2900/2924 13012KT P6SM SKC
     FM290500 15013KT P6SM SCT250 WS020/21040KT
     FM291600 21015KT P6SM SCT250
     FM291900 28010KT P6SM BKN250=



000
FTUS43 KSGF 282300
TAFSGF
TAF
KSGF 282320Z 2900/2924 15012KT P6SM SKC
     FM291100 15012KT P6SM SCT250 WS020/21035KT
     FM291600 16015KT P6SM SCT250
     FM291900 26010KT P6SM BKN250=



000
FTUS43 KSGF 281700
TAFSGF
TAF
KSGF 281731Z 2818/2918 12012G22KT P6SM OVC050
     FM282100 13012KT P6SM SCT025 BKN050
     FM290300 13012KT P6SM SCT100
     FM291100 15012KT P6SM SCT250 WS020/21035KT
     FM291600 16015KT P6SM SCT250=



000
FTUS43 KSGF 281700
TAFJLN
TAF
KJLN 281731Z 2818/2918 12012G22KT P6SM SCT050
     FM290000 13009KT P6SM SCT120
     FM290500 15013KT P6SM SCT250 WS020/21040KT
     FM291600 16015KT P6SM SCT250=



000
FTUS43 KSGF 281700
TAFJLN
TAF
KJLN 281731Z 2818/2918 12012G22KT P6SM SCT050
     FM290000 13009KT P6SM SCT120
     FM290500 15013KT P6SM SCT250 WS020/21040KT
     FM291600 16015KT P6SM SCT250=



000
FTUS43 KSGF 281700
TAFSGF
TAF
KSGF 281731Z 2818/2918 12012G22KT P6SM OVC050
     FM282100 13012KT P6SM SCT025 BKN050
     FM290300 13012KT P6SM SCT100
     FM291100 15012KT P6SM SCT250 WS020/21035KT
     FM291600 16015KT P6SM SCT250=



000
FTUS43 KSGF 281100
TAFSGF
TAF
KSGF 281125Z 2812/2912 13007KT P6SM OVC070
     FM281500 13012KT P6SM BKN060 OVC100
     FM282000 13010KT P6SM SCT100
     FM290500 15012KT P6SM SCT250 WS020/19035KT=



000
FTUS43 KSGF 281100
TAFJLN
TAF
KJLN 281125Z 2812/2912 13006KT P6SM OVC080
     FM281500 13010KT P6SM SCT070 BKN100
     FM281900 13009KT P6SM SCT120
     FM290500 15013KT P6SM SCT250 WS020/20035KT=



000
FTUS43 KSGF 280500
TAFSGF
TAF
KSGF 280520Z 2806/2906 VRB05KT P6SM OVC070
     FM280900 13007KT P6SM OVC050
     FM282100 13012KT P6SM SKC=



000
FTUS43 KSGF 280500
TAFJLN
TAF
KJLN 280520Z 2806/2906 13007KT P6SM OVC060
     FM281200 16008KT P6SM FEW250
     FM281600 14006KT P6SM SKC=



000
FTUS43 KSGF 280500
TAFSGF
TAF
KSGF 280520Z 2806/2906 VRB05KT P6SM OVC070
     FM280900 13007KT P6SM OVC050
     FM282100 13012KT P6SM SKC=



000
FTUS43 KSGF 280500
TAFJLN
TAF
KJLN 280520Z 2806/2906 13007KT P6SM OVC060
     FM281200 16008KT P6SM FEW250
     FM281600 14006KT P6SM SKC=



000
FTUS43 KSGF 272300
TAFSGF
TAF
KSGF 272323Z 2800/2824 VRB05KT P6SM OVC090
     FM280730 13007KT P6SM OVC050=



000
FTUS43 KSGF 272300
TAFJLN
TAF
KJLN 272323Z 2800/2824 VRB05KT P6SM OVC090
     FM280600 13007KT P6SM OVC060
     FM281200 16008KT P6SM FEW250=



000
FTUS43 KSGF 272300
TAFJLN
TAF
KJLN 272323Z 2800/2824 VRB05KT P6SM OVC090
     FM280600 13007KT P6SM OVC060
     FM281200 16008KT P6SM FEW250=



000
FTUS43 KSGF 272300
TAFSGF
TAF
KSGF 272323Z 2800/2824 VRB05KT P6SM OVC090
     FM280730 13007KT P6SM OVC050=



    US Dept of Commerce
    National Oceanic and Atmospheric Administration
    National Weather Service
    1325 East West Highway
    Silver Spring, MD 20910
    Page Author: NWS Internet Services Team
Disclaimer
Information Quality
Credits
Glossary
Privacy Policy
Freedom of Information Act (FOIA)
About Us
Career Opportunities